createdAt,value
2016-12-01T00:00:04.427Z,47.85
2016-12-01T00:05:04.628Z,46.9
2016-12-01T00:10:04.422Z,46.52
2016-12-01T00:15:04.813Z,45.19
2016-12-01T00:20:04.751Z,44.81
2016-12-01T00:25:05.302Z,44.72
2016-12-01T00:30:04.744Z,45
2016-12-01T00:35:04.897Z,43.96
2016-12-01T00:40:04.778Z,44.53
2016-12-01T00:45:04.983Z,43.87
2016-12-01T00:50:04.301Z,43.96
2016-12-01T00:55:04.965Z,42.73
2016-12-01T01:00:04.608Z,41.97
2016-12-01T01:05:04.988Z,41.78
2016-12-01T01:10:04.857Z,40.93
2016-12-01T01:15:04.663Z,38.56
2016-12-01T01:20:04.234Z,38.37
2016-12-01T01:25:04.572Z,38.94
2016-12-01T01:30:04.644Z,38.37
2016-12-01T01:35:05.071Z,38.09
2016-12-01T01:40:04.969Z,36.76
2016-12-01T01:45:04.171Z,36.95
2016-12-01T01:50:04.739Z,36.85
2016-12-01T01:55:05.346Z,35.43
2016-12-01T02:00:04.757Z,35.24
2016-12-01T02:05:05.117Z,36.38
2016-12-01T02:10:04.180Z,35.62
2016-12-01T02:15:04.654Z,35.72
2016-12-01T02:20:05.202Z,35.72
2016-12-01T02:25:05.236Z,36.1
2016-12-01T02:30:04.733Z,35.81
2016-12-01T02:35:05.220Z,35.24
2016-12-01T02:40:04.700Z,34.48
2016-12-01T02:45:04.336Z,34.3
2016-12-01T02:50:04.473Z,34.58
2016-12-01T02:55:05.147Z,33.44
2016-12-01T03:00:04.927Z,33.54
2016-12-01T03:05:09.066Z,32.87
2016-12-01T03:10:04.449Z,32.02
2016-12-01T03:15:04.809Z,31.83
2016-12-01T03:20:04.923Z,31.45
2016-12-01T03:25:05.033Z,30.88
2016-12-01T03:30:04.431Z,30.32
2016-12-01T03:35:04.603Z,30.22
2016-12-01T03:40:04.452Z,30.32
2016-12-01T03:45:05.018Z,29.75
2016-12-01T03:50:04.464Z,29.37
2016-12-01T03:55:04.779Z,29.84
2016-12-01T04:00:04.707Z,29.65
2016-12-01T04:05:06.206Z,28.99
2016-12-01T04:10:04.573Z,29.65
2016-12-01T04:15:04.455Z,29.37
2016-12-01T04:20:04.876Z,29.46
2016-12-01T04:25:04.989Z,28.7
2016-12-01T04:30:05.087Z,28.23
2016-12-01T04:35:05.079Z,27.76
2016-12-01T04:40:04.970Z,28.14
2016-12-01T04:50:04.232Z,27.85
2016-12-01T04:55:05.545Z,28.33
2016-12-01T05:00:05.457Z,28.52
2016-12-01T05:05:05.295Z,28.52
2016-12-01T05:10:04.726Z,27.95
2016-12-01T05:15:04.713Z,27.19
2016-12-01T05:20:04.841Z,27.76
2016-12-01T05:25:04.470Z,27.85
2016-12-01T05:30:04.843Z,28.04
2016-12-01T05:35:04.261Z,28.44
2016-12-01T05:40:05.086Z,27.77
2016-12-01T05:45:05.047Z,27.58
2016-12-01T05:50:04.775Z,27.47
2016-12-01T05:55:05.199Z,26.43
2016-12-01T06:00:05.207Z,26.62
2016-12-01T06:05:04.429Z,26.43
2016-12-01T06:10:04.956Z,26.53
2016-12-01T06:15:04.889Z,26.24
2016-12-01T06:20:04.799Z,25.96
2016-12-01T06:25:04.323Z,25.01
2016-12-01T06:30:04.691Z,24.73
2016-12-01T06:35:04.811Z,24.35
2016-12-01T06:40:04.724Z,24.06
2016-12-01T06:45:04.886Z,23.97
2016-12-01T06:50:05.088Z,24.16
2016-12-01T06:55:05.290Z,23.49
2016-12-01T07:00:04.427Z,23.11
2016-12-01T07:05:05.151Z,23.11
2016-12-01T07:10:05.021Z,23.02
2016-12-01T07:15:04.560Z,23.02
2016-12-01T07:20:04.471Z,22.07
2016-12-01T07:25:04.566Z,22.07
2016-12-01T07:30:04.378Z,22.36
2016-12-01T07:35:04.239Z,21.88
2016-12-01T07:40:04.595Z,21.12
2016-12-01T07:45:04.632Z,20.75
2016-12-01T07:50:05.077Z,20.28
2016-12-01T07:55:04.318Z,19.8
2016-12-01T08:00:04.569Z,19.32
2016-12-01T08:05:04.524Z,19.62
2016-12-01T08:10:04.419Z,19.24
2016-12-01T08:15:04.847Z,19.34
2016-12-01T08:20:04.382Z,19.05
2016-12-01T08:25:05.148Z,19.05
2016-12-01T08:30:04.408Z,19.15
2016-12-01T08:35:04.495Z,19.15
2016-12-01T08:40:04.196Z,19.15
2016-12-01T08:45:04.295Z,19.34
2016-12-01T08:50:04.776Z,19.62
2016-12-01T08:55:05.101Z,19.15
2016-12-01T09:00:04.638Z,19.43
2016-12-01T09:05:05.114Z,19.53
2016-12-01T09:10:04.734Z,19.81
2016-12-01T09:15:04.831Z,19.81
2016-12-01T09:20:04.938Z,20
2016-12-01T09:25:05.164Z,20.19
2016-12-01T09:30:04.750Z,20.57
2016-12-01T09:35:04.304Z,20.95
2016-12-01T09:40:04.477Z,21.34
2016-12-01T09:45:04.591Z,21.43
2016-12-01T09:50:04.647Z,21.81
2016-12-01T09:55:05.808Z,22.76
2016-12-01T10:00:04.250Z,22.38
2016-12-01T10:05:04.858Z,22.85
2016-12-01T10:10:04.542Z,22.76
2016-12-01T10:15:05.184Z,22.28
2016-12-01T10:20:04.732Z,21.81
2016-12-01T10:25:04.608Z,21.43
2016-12-01T10:30:04.270Z,20.77
2016-12-01T10:35:04.368Z,20.57
2016-12-01T10:40:04.986Z,19.63
2016-12-01T10:45:04.921Z,18.87
2016-12-01T10:50:04.575Z,18.3
2016-12-01T10:55:04.907Z,17.83
2016-12-01T11:00:04.915Z,17.73
2016-12-01T11:05:05.103Z,17.26
2016-12-01T11:10:04.509Z,17.54
2016-12-01T11:15:05.246Z,16.88
2016-12-01T11:20:04.582Z,16.41
2016-12-01T11:25:04.203Z,15.93
2016-12-01T11:30:04.322Z,16.03
2016-12-01T11:35:04.728Z,15.74
2016-12-01T11:40:04.465Z,15.55
2016-12-01T11:45:04.952Z,14.7
2016-12-01T11:50:05.017Z,13.75
2016-12-01T11:55:04.454Z,13.46
2016-12-01T12:00:04.838Z,12.8
2016-12-01T12:05:04.347Z,12.14
2016-12-01T12:10:04.932Z,11.48
2016-12-01T12:15:04.245Z,11.29
2016-12-01T12:20:05.082Z,11
2016-12-01T12:25:05.331Z,10.82
2016-12-01T12:30:04.953Z,10.44
2016-12-01T12:35:05.087Z,10.34
2016-12-01T12:40:05.183Z,10.34
2016-12-01T12:45:05.035Z,10.53
2016-12-01T12:50:05.184Z,11.1
2016-12-01T12:55:05.160Z,11.29
2016-12-01T13:00:04.867Z,11.29
2016-12-01T13:05:05.168Z,11.48
2016-12-01T13:10:05.145Z,11.58
2016-12-01T13:15:04.735Z,11.77
2016-12-01T13:20:05.006Z,11.77
2016-12-01T13:25:04.748Z,11.96
2016-12-01T13:30:05.090Z,12.05
2016-12-01T13:35:04.856Z,12.05
2016-12-01T13:40:04.278Z,11.87
2016-12-01T13:45:04.359Z,11.58
2016-12-01T13:50:04.465Z,11.01
2016-12-01T13:55:04.855Z,10.25
2016-12-01T14:00:05.020Z,10.06
2016-12-01T14:05:04.245Z,9.87
2016-12-01T14:10:05.183Z,9.68
2016-12-01T14:15:04.817Z,9.59
2016-12-01T14:20:04.534Z,9.49
2016-12-01T14:25:05.056Z,8.83
2016-12-01T14:30:04.675Z,8.64
2016-12-01T14:35:04.980Z,8.54
2016-12-01T14:40:04.396Z,8.16
2016-12-01T14:45:05.188Z,7.97
2016-12-01T14:50:04.504Z,7.31
2016-12-01T14:55:04.989Z,7.68
2016-12-01T15:00:04.659Z,7.21
2016-12-01T15:05:04.154Z,6.93
2016-12-01T15:10:04.761Z,6.74
2016-12-01T15:15:04.559Z,6.74
2016-12-01T15:20:04.806Z,6.26
2016-12-01T15:25:04.952Z,6.17
2016-12-01T15:30:05.305Z,6.26
2016-12-01T15:35:05.118Z,6.07
2016-12-01T15:40:05.000Z,5.79
2016-12-01T15:45:04.799Z,5.51
2016-12-01T15:50:05.116Z,5.41
2016-12-01T15:55:05.358Z,4.93
2016-12-01T16:00:04.552Z,4.74
2016-12-01T16:05:04.845Z,4.27
2016-12-01T16:10:04.738Z,4.27
2016-12-01T16:15:04.323Z,3.99
2016-12-01T16:20:04.751Z,3.41
2016-12-01T16:25:05.065Z,3.32
2016-12-01T16:30:04.716Z,2.94
2016-12-01T16:35:04.937Z,2.66
2016-12-01T16:40:05.053Z,2.66
2016-12-01T16:45:04.760Z,2.28
2016-12-01T16:50:05.134Z,2.18
2016-12-01T16:55:05.292Z,2.28
2016-12-01T17:00:04.955Z,2.18
2016-12-01T17:05:04.751Z,2.28
2016-12-01T17:10:04.280Z,1.8
2016-12-01T17:15:04.397Z,1.8
2016-12-01T17:20:04.412Z,1.61
2016-12-01T17:25:04.733Z,1.8
2016-12-01T17:30:05.073Z,1.9
2016-12-01T17:35:04.494Z,1.9
2016-12-01T17:40:04.590Z,1.9
2016-12-01T17:45:04.714Z,1.61
2016-12-01T17:50:05.119Z,1.42
2016-12-01T17:55:04.520Z,1.23
2016-12-01T18:00:04.976Z,0.95
2016-12-01T18:05:04.378Z,1.04
2016-12-01T18:10:04.932Z,0.76
2016-12-01T18:15:05.208Z,0.57
2016-12-01T18:20:05.043Z,0.47
2016-12-01T18:25:04.564Z,0.38
2016-12-01T18:30:05.194Z,0.09
2016-12-01T18:35:05.036Z,0
2016-12-01T18:40:04.748Z,0.09
2016-12-01T18:45:04.578Z,0
2016-12-01T18:50:05.136Z,0
2016-12-01T18:55:04.520Z,0
2016-12-01T19:00:05.003Z,0
2016-12-01T19:05:04.690Z,0
2016-12-01T19:10:04.501Z,0
2016-12-01T19:15:04.667Z,0
2016-12-01T19:20:04.889Z,0
2016-12-01T19:25:04.915Z,0
2016-12-01T19:30:05.025Z,0
2016-12-01T19:35:04.483Z,0
2016-12-01T19:40:04.984Z,0
2016-12-01T19:45:04.775Z,0
2016-12-01T19:50:04.761Z,0
2016-12-01T19:55:05.484Z,0
2016-12-01T20:00:04.922Z,0
2016-12-01T20:05:04.972Z,0
2016-12-01T20:10:04.689Z,0
2016-12-01T20:15:04.251Z,0
2016-12-01T20:20:04.786Z,0
2016-12-01T20:25:04.738Z,0
2016-12-01T20:30:04.309Z,0
2016-12-01T20:35:04.857Z,0
2016-12-01T20:40:04.235Z,0
2016-12-01T20:45:04.620Z,0
2016-12-01T20:50:05.158Z,0
2016-12-01T20:55:04.596Z,0
2016-12-01T21:00:05.115Z,0
2016-12-01T21:05:04.705Z,0
2016-12-01T21:10:04.427Z,0
2016-12-01T21:15:04.770Z,0
2016-12-01T21:20:05.898Z,0
2016-12-01T21:25:06.553Z,0
2016-12-01T21:30:05.430Z,0
2016-12-01T21:35:09.322Z,0
2016-12-01T21:40:05.246Z,0
2016-12-01T21:45:05.266Z,0
2016-12-01T21:50:05.045Z,0
2016-12-01T21:55:04.590Z,0
2016-12-01T22:00:05.187Z,0
2016-12-01T22:05:04.712Z,0
2016-12-01T22:10:05.027Z,0
2016-12-01T22:15:04.218Z,0
2016-12-01T22:20:04.647Z,0
2016-12-01T22:25:05.105Z,0
2016-12-01T22:30:04.314Z,0
2016-12-01T22:35:04.892Z,0
2016-12-01T22:40:04.806Z,0
2016-12-01T22:45:04.356Z,0
2016-12-01T22:50:04.773Z,0
2016-12-01T22:55:05.254Z,0
2016-12-01T23:00:04.175Z,0
2016-12-01T23:05:04.972Z,0
2016-12-01T23:10:04.569Z,0
2016-12-01T23:15:04.933Z,0
2016-12-01T23:20:04.751Z,0
2016-12-01T23:25:04.603Z,0
2016-12-01T23:30:04.695Z,0
2016-12-01T23:35:04.299Z,0
2016-12-01T23:40:04.825Z,0
2016-12-01T23:45:04.671Z,0
2016-12-01T23:50:04.806Z,0
2016-12-01T23:55:05.134Z,0
